Time;durP1;ratioP1;P1;durP2;ratioP2;P2;SDS_P1;SDS_P2;PMS_P1;PMS_P2;Temp;Humidity;BMP_temperature;BMP_pressure;BME280_temperature;BME280_humidity;BME280_pressure;Samples;Min_cycle;Max_cycle;Signal;HPM_P1;HPM_P2
2021/05/28 00:02:20;;;;;;;3.10;1.83;;;16.20;89.20;;;;;;5084573;28;20300;-74
2021/05/28 00:04:48;;;;;;;3.80;1.90;;;16.20;88.70;;;;;;5080612;28;20567;-74
2021/05/28 00:07:15;;;;;;;6.87;2.00;;;16.20;88.80;;;;;;5100919;28;20246;-74
2021/05/28 00:09:42;;;;;;;3.10;2.10;;;16.10;88.90;;;;;;5080673;28;20217;-73
2021/05/28 00:12:10;;;;;;;3.37;2.23;;;16.10;89.00;;;;;;5097082;28;20228;-75
2021/05/28 00:14:37;;;;;;;9.07;2.30;;;16.10;89.20;;;;;;5097844;28;20216;-74
2021/05/28 00:17:04;;;;;;;2.83;2.37;;;16.00;89.40;;;;;;5105398;28;20224;-74
2021/05/28 00:19:32;;;;;;;10.90;2.60;;;16.00;89.50;;;;;;5105676;28;20224;-74
2021/05/28 00:21:59;;;;;;;5.47;2.27;;;16.00;89.50;;;;;;5101551;28;20596;-73
2021/05/28 00:24:26;;;;;;;7.70;2.40;;;15.90;89.50;;;;;;5082119;28;20204;-74
2021/05/28 00:26:54;;;;;;;5.27;2.17;;;15.90;89.70;;;;;;5105095;28;20240;-74
2021/05/28 00:29:21;;;;;;;4.20;2.30;;;15.90;89.80;;;;;;5102207;28;20209;-74
2021/05/28 00:31:48;;;;;;;4.23;2.50;;;15.90;90.00;;;;;;5104798;28;20208;-74
2021/05/28 00:34:16;;;;;;;5.67;2.53;;;15.90;90.00;;;;;;5084286;28;20266;-74
2021/05/28 00:36:43;;;;;;;9.33;2.93;;;15.90;90.00;;;;;;5082529;28;20217;-74
2021/05/28 00:39:10;;;;;;;4.27;2.40;;;15.90;90.10;;;;;;5104002;28;20265;-75
2021/05/28 00:41:37;;;;;;;3.77;2.50;;;15.90;90.30;;;;;;5102042;28;20219;-73
2021/05/28 00:44:06;;;;;;;8.50;3.17;;;15.90;90.20;;;;;;5104449;28;20295;-74
2021/05/28 00:46:33;;;;;;;6.87;3.40;;;15.90;90.30;;;;;;5101028;28;20847;-73
2021/05/28 00:49:00;;;;;;;5.30;3.50;;;15.80;90.30;;;;;;5105612;28;20221;-73
2021/05/28 00:51:27;;;;;;;6.23;2.60;;;15.80;90.30;;;;;;5101728;28;20209;-73
2021/05/28 00:53:55;;;;;;;5.17;3.63;;;15.80;90.40;;;;;;5103061;28;20628;-73
2021/05/28 00:56:26;;;;;;;6.40;2.80;;;15.80;90.50;;;;;;5084292;28;20213;-74
2021/05/28 00:59:02;;;;;;;6.30;3.40;;;15.80;90.60;;;;;;5103520;28;20242;-74
2021/05/28 01:01:30;;;;;;;4.07;2.73;;;15.80;90.60;;;;;;5104385;28;20234;-73
2021/05/28 01:03:57;;;;;;;10.67;3.43;;;15.80;90.60;;;;;;5101481;28;20644;-73
2021/05/28 01:06:25;;;;;;;6.57;3.20;;;15.80;90.50;;;;;;5100546;28;20649;-73
2021/05/28 01:08:54;;;;;;;3.10;2.80;;;15.80;90.50;;;;;;5086622;28;20307;-74
2021/05/28 01:11:22;;;;;;;6.17;4.03;;;15.70;90.50;;;;;;5100686;28;20297;-74
2021/05/28 01:13:50;;;;;;;7.43;3.53;;;15.70;90.60;;;;;;5096986;28;20224;-74
2021/05/28 01:16:18;;;;;;;18.97;3.93;;;15.70;90.60;;;;;;5100777;28;20208;-74
2021/05/28 01:18:46;;;;;;;6.57;3.33;;;15.70;90.70;;;;;;5086572;28;20702;-74
2021/05/28 01:21:13;;;;;;;6.70;3.77;;;15.60;90.60;;;;;;5100607;28;20227;-74
2021/05/28 01:23:41;;;;;;;7.73;3.80;;;15.70;90.60;;;;;;5103399;28;20603;-74
2021/05/28 01:26:08;;;;;;;5.77;3.33;;;15.60;90.70;;;;;;5093016;28;20215;-73
2021/05/28 01:28:35;;;;;;;5.03;3.17;;;15.60;90.70;;;;;;5100778;28;20296;-73
2021/05/28 01:31:02;;;;;;;5.10;2.90;;;15.70;90.70;;;;;;5104579;28;20240;-74
2021/05/28 01:33:30;;;;;;;4.20;3.40;;;15.70;90.70;;;;;;5082757;28;20211;-73
2021/05/28 01:35:58;;;;;;;4.80;3.80;;;15.70;90.50;;;;;;5102210;28;20287;-73
2021/05/28 01:38:26;;;;;;;5.30;3.23;;;15.60;90.50;;;;;;5101416;28;20233;-73
2021/05/28 01:40:54;;;;;;;3.50;3.20;;;15.60;90.50;;;;;;5102932;28;20727;-73
2021/05/28 01:43:21;;;;;;;5.17;3.20;;;15.50;90.50;;;;;;5103843;28;20196;-73
2021/05/28 01:45:49;;;;;;;4.53;2.63;;;15.50;90.60;;;;;;5101874;28;20223;-73
2021/05/28 01:48:16;;;;;;;7.87;2.70;;;15.50;90.60;;;;;;5102656;28;20291;-73
2021/05/28 01:50:44;;;;;;;7.37;3.03;;;15.40;90.60;;;;;;5101777;28;20216;-73
2021/05/28 01:53:18;;;;;;;4.77;2.60;;;15.40;90.60;;;;;;5102317;28;20589;-74
2021/05/28 01:55:47;;;;;;;4.10;2.50;;;15.40;90.60;;;;;;5083314;28;20648;-73
2021/05/28 01:58:16;;;;;;;4.27;2.87;;;15.40;90.60;;;;;;5104714;28;20243;-73
2021/05/28 02:00:47;;;;;;;3.37;2.37;;;15.30;90.70;;;;;;5103813;28;20240;-73
2021/05/28 02:03:18;;;;;;;4.90;2.77;;;15.30;90.70;;;;;;5082643;28;20213;-74
2021/05/28 02:05:46;;;;;;;4.80;2.63;;;15.40;90.90;;;;;;5096820;28;20228;-74
2021/05/28 02:08:16;;;;;;;9.40;3.50;;;15.40;90.80;;;;;;5101145;28;20224;-74
2021/05/28 02:10:44;;;;;;;5.30;2.90;;;15.50;90.80;;;;;;5100771;28;20223;-74
2021/05/28 02:13:12;;;;;;;4.43;3.30;;;15.50;90.70;;;;;;5085093;28;20204;-74
2021/05/28 02:15:39;;;;;;;4.80;3.43;;;15.60;90.70;;;;;;5101256;28;20212;-74
2021/05/28 02:18:07;;;;;;;4.50;3.83;;;15.60;90.60;;;;;;5084737;28;20236;-74
2021/05/28 02:20:34;;;;;;;4.43;3.83;;;15.60;90.50;;;;;;5083754;28;20220;-74
2021/05/28 02:23:02;;;;;;;6.17;4.30;;;15.70;90.50;;;;;;5102468;28;20208;-74
2021/05/28 02:25:29;;;;;;;4.70;4.30;;;15.60;90.80;;;;;;5100585;28;20364;-74
2021/05/28 02:27:56;;;;;;;10.07;4.60;;;15.70;90.50;;;;;;5100591;28;20220;-73
2021/05/28 02:30:24;;;;;;;5.30;4.37;;;15.70;90.50;;;;;;5100003;28;20205;-73
2021/05/28 02:32:51;;;;;;;7.33;4.97;;;15.70;90.50;;;;;;5101944;28;20676;-73
2021/05/28 02:35:20;;;;;;;5.70;5.10;;;15.70;90.50;;;;;;5102668;28;20209;-74
2021/05/28 02:37:47;;;;;;;8.67;5.60;;;15.70;90.50;;;;;;5086399;28;20584;-74
2021/05/28 02:40:14;;;;;;;6.30;5.70;;;15.80;90.50;;;;;;5105799;28;20247;-74
2021/05/28 02:42:41;;;;;;;8.10;5.37;;;15.70;90.50;;;;;;5105782;28;20224;-74
2021/05/28 02:45:09;;;;;;;8.17;5.93;;;15.80;90.80;;;;;;5105151;28;20208;-74
2021/05/28 02:47:37;;;;;;;7.30;5.43;;;15.80;90.50;;;;;;5106917;28;20209;-74
2021/05/28 02:50:05;;;;;;;6.27;5.30;;;15.80;90.50;;;;;;5104368;28;20299;-74
2021/05/28 02:52:32;;;;;;;6.23;5.63;;;15.80;90.50;;;;;;5106840;28;20232;-74
2021/05/28 02:54:59;;;;;;;6.20;5.60;;;15.80;90.40;;;;;;5103227;28;20240;-74
2021/05/28 02:57:28;;;;;;;6.17;5.53;;;15.90;90.50;;;;;;5102229;28;20215;-74
2021/05/28 02:59:55;;;;;;;8.03;6.50;;;15.80;90.40;;;;;;5085788;28;20213;-74
2021/05/28 03:02:23;;;;;;;7.43;6.70;;;15.80;90.50;;;;;;5105948;28;20216;-74
2021/05/28 03:04:50;;;;;;;11.87;7.77;;;15.80;90.50;;;;;;5104721;28;20701;-73
2021/05/28 03:07:17;;;;;;;10.43;7.40;;;15.70;90.40;;;;;;5102641;28;20216;-73
2021/05/28 03:09:45;;;;;;;11.83;7.13;;;15.70;90.50;;;;;;5102709;28;20259;-74
2021/05/28 03:12:12;;;;;;;10.80;8.80;;;15.70;90.50;;;;;;5106584;28;20303;-74
2021/05/28 03:14:39;;;;;;;10.50;9.40;;;15.70;90.60;;;;;;5102897;28;20209;-74
2021/05/28 03:17:07;;;;;;;13.97;10.13;;;15.70;90.90;;;;;;5105393;28;20208;-74
2021/05/28 03:19:44;;;;;;;10.70;9.77;;;15.60;90.60;;;;;;5105674;28;20311;-74
2021/05/28 03:22:34;;;;;;;12.93;10.07;;;15.60;90.60;;;;;;5078120;28;20207;-74
2021/05/28 03:25:04;;;;;;;11.23;10.03;;;15.60;90.60;;;;;;5081888;28;20213;-73
2021/05/28 03:27:32;;;;;;;11.57;10.10;;;15.60;90.60;;;;;;5105545;28;20228;-73
2021/05/28 03:30:00;;;;;;;17.67;11.07;;;15.60;90.50;;;;;;5103344;28;20486;-75
2021/05/28 03:32:28;;;;;;;13.43;10.27;;;15.60;90.60;;;;;;5105101;28;20208;-74
2021/05/28 03:34:56;;;;;;;12.60;10.73;;;15.60;90.60;;;;;;5103158;28;20251;-73
2021/05/28 03:37:27;;;;;;;13.77;11.13;;;15.60;90.60;;;;;;5102259;28;20212;-73
2021/05/28 03:39:54;;;;;;;10.53;9.27;;;15.60;90.50;;;;;;5104254;28;20688;-74
2021/05/28 03:42:22;;;;;;;13.30;9.93;;;15.50;90.40;;;;;;5104599;28;20213;-74
2021/05/28 03:44:49;;;;;;;9.73;8.20;;;15.40;90.50;;;;;;5106904;28;20240;-73
2021/05/28 03:47:18;;;;;;;9.27;8.20;;;15.40;90.60;;;;;;5103606;28;20213;-74
2021/05/28 03:49:45;;;;;;;8.40;7.20;;;15.40;90.60;;;;;;5099974;28;20213;-73
2021/05/28 03:52:14;;;;;;;8.47;7.40;;;15.40;90.50;;;;;;5106993;28;20296;-73
2021/05/28 03:54:45;;;;;;;8.87;7.60;;;15.40;90.40;;;;;;5111873;28;20213;-73
2021/05/28 03:57:13;;;;;;;8.13;7.20;;;15.40;90.30;;;;;;5092299;28;20204;-73
2021/05/28 03:59:40;;;;;;;8.87;6.90;;;15.40;90.20;;;;;;5103238;28;20606;-73
2021/05/28 04:02:07;;;;;;;7.93;7.13;;;15.40;90.20;;;;;;5087814;28;20209;-73
2021/05/28 04:04:35;;;;;;;8.13;6.47;;;15.50;90.20;;;;;;5092074;28;20235;-73
2021/05/28 04:07:02;;;;;;;9.57;6.77;;;15.50;90.20;;;;;;5106111;28;20711;-73
2021/05/28 04:09:33;;;;;;;7.27;6.57;;;15.60;90.10;;;;;;5101607;28;20224;-73
2021/05/28 04:12:01;;;;;;;7.10;6.30;;;15.60;89.70;;;;;;5089204;28;20240;-74
2021/05/28 04:14:28;;;;;;;7.33;6.63;;;15.70;89.40;;;;;;5106437;28;20235;-74
2021/05/28 04:16:55;;;;;;;7.53;6.73;;;15.70;89.20;;;;;;5092603;28;20220;-73
2021/05/28 04:19:22;;;;;;;7.40;6.47;;;15.70;89.00;;;;;;5107133;28;20266;-73
2021/05/28 04:21:50;;;;;;;5.63;5.13;;;15.80;88.90;;;;;;5110535;28;20535;-74
2021/05/28 04:24:17;;;;;;;6.90;5.50;;;15.80;88.70;;;;;;5076474;28;20221;-74
2021/05/28 04:26:44;;;;;;;6.73;5.30;;;15.80;88.30;;;;;;5085920;28;20582;-74
2021/05/28 04:29:11;;;;;;;8.33;6.10;;;15.80;88.20;;;;;;5104936;28;20213;-73
2021/05/28 04:31:38;;;;;;;6.97;5.60;;;15.80;88.00;;;;;;5105145;28;20205;-73
2021/05/28 04:34:06;;;;;;;6.83;5.43;;;15.80;87.90;;;;;;5085363;28;20270;-73
2021/05/28 04:36:33;;;;;;;6.97;5.87;;;15.80;87.70;;;;;;5101152;28;20692;-73
2021/05/28 04:39:00;;;;;;;6.40;5.30;;;15.80;87.80;;;;;;5086711;28;20232;-73
2021/05/28 04:41:27;;;;;;;6.63;5.70;;;15.80;87.80;;;;;;5084708;28;20213;-73
2021/05/28 04:43:55;;;;;;;9.93;5.63;;;15.90;87.50;;;;;;5104584;28;20217;-73
2021/05/28 04:46:22;;;;;;;6.57;5.87;;;15.90;87.50;;;;;;5101068;28;20227;-73
2021/05/28 04:48:49;;;;;;;9.07;5.37;;;16.00;87.40;;;;;;5084220;28;20217;-73
2021/05/28 04:51:17;;;;;;;7.43;5.33;;;16.10;87.10;;;;;;5105598;28;20220;-73
2021/05/28 04:53:44;;;;;;;7.37;5.80;;;16.20;87.30;;;;;;5104425;28;20257;-74
2021/05/28 04:56:11;;;;;;;9.67;5.93;;;16.40;86.30;;;;;;5084368;28;20225;-74
2021/05/28 04:58:39;;;;;;;12.07;5.50;;;16.60;85.70;;;;;;5100138;28;20286;-74
2021/05/28 05:01:07;;;;;;;6.67;5.27;;;16.80;85.10;;;;;;5085702;28;20644;-74
2021/05/28 05:03:35;;;;;;;7.03;5.47;;;16.90;84.40;;;;;;5100764;28;20633;-73
2021/05/28 05:06:02;;;;;;;11.07;6.73;;;16.90;84.00;;;;;;5102042;28;20217;-74
2021/05/28 05:08:31;;;;;;;7.43;5.63;;;16.90;84.00;;;;;;5100752;28;20269;-73
2021/05/28 05:10:58;;;;;;;5.77;5.27;;;17.10;84.10;;;;;;5082120;28;20214;-73
2021/05/28 05:13:25;;;;;;;6.93;5.17;;;17.20;84.00;;;;;;5102184;28;20312;-73
2021/05/28 05:15:52;;;;;;;9.87;5.47;;;17.30;83.70;;;;;;5102657;28;20353;-74
2021/05/28 05:18:20;;;;;;;7.53;5.17;;;17.40;83.00;;;;;;5103657;28;20255;-74
2021/05/28 05:20:47;;;;;;;7.57;5.10;;;17.50;82.10;;;;;;5102764;28;20266;-74
2021/05/28 05:23:14;;;;;;;6.63;4.33;;;17.60;82.40;;;;;;5099234;28;20213;-74
2021/05/28 05:25:41;;;;;;;8.17;4.80;;;17.70;81.90;;;;;;5102632;28;20570;-73
2021/05/28 05:28:09;;;;;;;5.10;4.20;;;17.90;81.70;;;;;;5104009;28;20240;-73
2021/05/28 05:30:36;;;;;;;4.77;4.13;;;18.00;80.80;;;;;;5082577;28;20240;-73
2021/05/28 05:33:04;;;;;;;6.70;4.47;;;18.20;80.10;;;;;;5101619;28;20205;-73
2021/05/28 05:35:31;;;;;;;7.03;4.30;;;18.30;79.50;;;;;;5099598;28;20204;-74
2021/05/28 05:37:59;;;;;;;5.10;3.40;;;18.30;79.30;;;;;;5081925;28;20247;-74
2021/05/28 05:40:27;;;;;;;4.67;3.50;;;18.50;79.30;;;;;;5104284;28;20297;-74
2021/05/28 05:42:54;;;;;;;4.50;3.50;;;18.60;78.60;;;;;;5101115;28;20213;-73
2021/05/28 05:45:21;;;;;;;5.17;3.40;;;18.70;77.50;;;;;;5104088;28;20222;-73
2021/05/28 05:47:49;;;;;;;3.80;3.30;;;18.70;77.40;;;;;;5101062;28;20549;-73
2021/05/28 05:50:16;;;;;;;5.07;3.50;;;18.70;77.00;;;;;;5098195;28;20243;-74
2021/05/28 05:52:43;;;;;;;5.83;4.07;;;18.80;77.20;;;;;;5099823;28;20213;-74
2021/05/28 05:55:11;;;;;;;5.53;3.77;;;18.80;77.10;;;;;;5102732;28;20239;-74
2021/05/28 05:57:39;;;;;;;7.13;3.40;;;18.90;77.00;;;;;;5100596;28;20208;-73
2021/05/28 06:00:07;;;;;;;5.87;3.47;;;19.00;76.60;;;;;;5103455;28;20547;-73
2021/05/28 06:02:36;;;;;;;3.30;3.00;;;19.10;76.50;;;;;;5099890;28;20515;-74
2021/05/28 06:05:04;;;;;;;6.37;3.03;;;19.20;75.70;;;;;;5096375;28;20251;-74
2021/05/28 06:07:32;;;;;;;3.50;3.13;;;19.30;75.70;;;;;;5100076;28;20205;-74
2021/05/28 06:09:59;;;;;;;4.40;3.03;;;19.30;76.00;;;;;;5100864;28;20241;-75
2021/05/28 06:12:26;;;;;;;3.87;3.33;;;19.40;75.80;;;;;;5107142;28;20212;-74
2021/05/28 06:14:54;;;;;;;4.57;3.50;;;19.60;76.00;;;;;;5104224;28;20213;-74
2021/05/28 06:17:21;;;;;;;4.77;3.20;;;19.70;76.10;;;;;;5087958;28;20200;-74
2021/05/28 06:19:48;;;;;;;3.87;3.43;;;19.80;76.30;;;;;;5084652;28;20262;-74
2021/05/28 06:22:21;;;;;;;4.37;3.40;;;20.00;75.40;;;;;;5104927;28;20219;-74
2021/05/28 06:24:52;;;;;;;3.90;3.17;;;20.10;74.60;;;;;;5102856;28;20341;-74
2021/05/28 06:27:20;;;;;;;4.30;3.90;;;20.20;73.90;;;;;;5104419;28;20197;-74
2021/05/28 06:29:47;;;;;;;3.83;3.53;;;20.30;72.90;;;;;;5097577;28;20201;-74
2021/05/28 06:32:15;;;;;;;9.27;4.47;;;20.30;73.90;;;;;;5083321;28;20204;-74
2021/05/28 06:34:42;;;;;;;5.57;3.63;;;20.30;73.60;;;;;;5105650;28;20219;-74
2021/05/28 06:37:09;;;;;;;6.70;3.50;;;20.50;73.90;;;;;;5087629;28;20217;-74
2021/05/28 06:39:36;;;;;;;5.00;4.17;;;20.60;73.50;;;;;;5103998;28;20255;-75
2021/05/28 06:42:04;;;;;;;7.80;4.17;;;20.90;72.10;;;;;;5105774;28;20212;-74
2021/05/28 06:44:31;;;;;;;6.10;3.80;;;21.00;71.40;;;;;;5104510;28;20610;-74
2021/05/28 06:46:58;;;;;;;3.73;3.43;;;21.00;72.50;;;;;;5105481;28;20209;-74
2021/05/28 06:49:26;;;;;;;6.13;3.73;;;21.20;72.60;;;;;;5086262;28;20246;-74
2021/05/28 06:51:53;;;;;;;7.23;3.80;;;21.40;72.10;;;;;;5104650;28;20225;-73
2021/05/28 06:54:20;;;;;;;5.27;3.77;;;21.50;71.00;;;;;;5102927;28;21076;-74
2021/05/28 06:56:47;;;;;;;7.20;4.43;;;21.70;70.60;;;;;;5088899;28;20641;-74
2021/05/28 06:59:14;;;;;;;6.27;4.33;;;21.90;70.90;;;;;;5103783;28;20578;-74
2021/05/28 07:01:42;;;;;;;5.10;4.00;;;22.00;70.00;;;;;;5107646;28;20216;-75
2021/05/28 07:04:09;;;;;;;4.07;3.67;;;22.10;69.10;;;;;;5104113;28;20240;-74
2021/05/28 07:06:36;;;;;;;7.77;5.13;;;22.00;68.60;;;;;;5085773;28;20307;-74
2021/05/28 07:09:06;;;;;;;8.47;4.80;;;22.00;69.20;;;;;;5107696;28;20243;-74
2021/05/28 07:11:33;;;;;;;7.80;4.10;;;22.10;69.70;;;;;;5086066;28;20251;-74
2021/05/28 07:14:01;;;;;;;5.83;4.00;;;22.30;69.00;;;;;;5103444;28;20217;-74
2021/05/28 07:16:30;;;;;;;5.40;4.20;;;22.50;68.50;;;;;;5107003;28;20212;-74
2021/05/28 07:18:57;;;;;;;4.23;3.63;;;22.60;67.50;;;;;;5081500;28;20243;-74
2021/05/28 07:21:27;;;;;;;9.23;4.40;;;22.80;67.80;;;;;;5081449;28;20223;-74
2021/05/28 07:23:54;;;;;;;5.50;3.13;;;22.90;66.60;;;;;;5079731;28;20301;-75
2021/05/28 07:26:21;;;;;;;3.57;2.77;;;23.00;66.40;;;;;;5106189;28;20213;-73
2021/05/28 07:28:49;;;;;;;5.20;4.70;;;23.20;65.90;;;;;;5103469;28;20612;-75
2021/05/28 07:31:16;;;;;;;6.47;3.13;;;23.30;65.20;;;;;;5106979;28;20217;-74
2021/05/28 07:33:43;;;;;;;5.60;3.13;;;23.40;66.10;;;;;;5106189;28;20576;-74
2021/05/28 07:36:10;;;;;;;5.30;3.60;;;23.70;65.90;;;;;;5081892;28;20209;-73
2021/05/28 07:38:38;;;;;;;4.47;3.23;;;24.00;65.10;;;;;;5103870;28;20252;-74
2021/05/28 07:41:06;;;;;;;3.57;3.03;;;24.10;63.70;;;;;;5083296;28;20240;-74
2021/05/28 07:43:34;;;;;;;3.47;2.50;;;24.20;62.50;;;;;;5085998;28;20571;-74
2021/05/28 07:46:03;;;;;;;4.50;2.97;;;24.10;62.10;;;;;;5105328;28;20216;-75
2021/05/28 07:48:30;;;;;;;3.97;2.00;;;23.90;62.70;;;;;;5106899;28;20265;-74
2021/05/28 07:51:00;;;;;;;6.40;3.23;;;23.70;63.80;;;;;;5102444;28;20209;-73
2021/05/28 07:53:28;;;;;;;4.07;3.07;;;23.70;62.90;;;;;;5104632;28;20213;-73
2021/05/28 07:56:04;;;;;;;4.77;2.60;;;23.60;63.40;;;;;;5088840;28;20220;-74
2021/05/28 07:58:36;;;;;;;3.47;2.03;;;23.50;63.10;;;;;;5102937;28;20213;-74
2021/05/28 08:01:03;;;;;;;3.90;2.67;;;23.70;63.90;;;;;;5098647;28;20250;-73
2021/05/28 08:03:30;;;;;;;4.23;2.43;;;23.90;62.40;;;;;;5080897;28;20200;-73
2021/05/28 08:05:58;;;;;;;3.47;2.63;;;23.80;60.90;;;;;;5099337;28;20213;-73
2021/05/28 08:08:28;;;;;;;4.53;2.93;;;23.50;62.80;;;;;;5084744;28;20240;-73
2021/05/28 08:10:56;;;;;;;5.37;2.40;;;23.50;61.90;;;;;;5106499;28;20295;-73
2021/05/28 08:13:23;;;;;;;4.50;2.60;;;23.40;62.50;;;;;;5102215;28;20215;-73
2021/05/28 08:15:52;;;;;;;4.53;2.37;;;23.70;63.50;;;;;;5102020;28;20236;-73
2021/05/28 08:18:19;;;;;;;3.90;2.53;;;23.90;63.40;;;;;;5102215;28;20298;-73
2021/05/28 08:20:46;;;;;;;3.57;2.10;;;24.00;63.40;;;;;;5101840;28;20231;-73
2021/05/28 08:23:14;;;;;;;4.07;2.77;;;24.20;64.30;;;;;;5104498;28;20240;-73
2021/05/28 08:25:41;;;;;;;5.13;2.23;;;24.40;60.60;;;;;;5103272;28;20220;-72
2021/05/28 08:28:08;;;;;;;2.03;1.77;;;24.30;60.50;;;;;;5086774;28;20222;-71
2021/05/28 08:30:35;;;;;;;2.77;1.80;;;24.30;61.30;;;;;;5084102;28;20531;-73
2021/05/28 08:33:06;;;;;;;7.20;2.17;;;24.30;61.10;;;;;;5105310;28;20216;-72
2021/05/28 08:35:33;;;;;;;8.33;2.07;;;24.30;61.70;;;;;;5105711;28;20204;-72
2021/05/28 08:38:01;;;;;;;3.13;2.33;;;24.20;60.70;;;;;;5101832;28;20552;-72
2021/05/28 08:40:30;;;;;;;3.53;2.40;;;24.20;61.80;;;;;;5099946;28;20233;-73
2021/05/28 08:43:01;;;;;;;4.77;2.53;;;24.30;62.30;;;;;;5085320;28;20612;-74
2021/05/28 08:45:34;;;;;;;4.23;1.80;;;24.40;62.80;;;;;;5104975;28;20212;-73
2021/05/28 08:48:04;;;;;;;4.03;2.07;;;24.50;61.40;;;;;;5097296;28;20637;-73
2021/05/28 08:50:32;;;;;;;2.87;2.13;;;24.60;61.50;;;;;;5097356;28;20212;-72
2021/05/28 08:53:05;;;;;;;5.03;2.33;;;24.80;61.20;;;;;;5101812;28;20276;-72
2021/05/28 08:55:33;;;;;;;5.47;2.13;;;24.90;59.90;;;;;;5102851;28;20291;-74
2021/05/28 08:58:09;;;;;;;6.30;2.90;;;25.00;60.70;;;;;;5096062;28;20620;-73
2021/05/28 09:00:37;;;;;;;5.20;2.63;;;25.10;61.20;;;;;;5104096;28;20660;-74
2021/05/28 09:03:24;;;;;;;3.43;1.90;;;25.20;59.60;;;;;;5103273;28;20215;-74
2021/05/28 09:05:56;;;;;;;2.97;2.30;;;25.20;60.20;;;;;;5082221;28;20236;-74
2021/05/28 09:08:31;;;;;;;3.43;2.10;;;25.40;60.20;;;;;;5083820;28;20212;-73
2021/05/28 09:11:18;;;;;;;4.77;1.80;;;25.60;58.50;;;;;;5105179;28;20220;-74
2021/05/28 09:13:51;;;;;;;2.93;2.10;;;25.50;57.60;;;;;;5101736;28;20311;-74
2021/05/28 09:16:22;;;;;;;4.53;2.40;;;25.40;56.90;;;;;;5084724;28;20368;-73
2021/05/28 09:18:52;;;;;;;1.17;1.07;;;25.40;56.10;;;;;;5105248;28;20235;-73
2021/05/28 09:21:33;;;;;;;2.27;1.40;;;25.40;57.60;;;;;;5097353;28;20525;-72
2021/05/28 09:24:04;;;;;;;1.60;1.50;;;25.50;58.00;;;;;;5105006;28;20898;-73
2021/05/28 09:26:32;;;;;;;3.57;1.30;;;25.80;57.30;;;;;;5102443;28;20213;-73
2021/05/28 09:29:01;;;;;;;2.90;1.70;;;26.20;57.50;;;;;;5090338;28;20205;-73
2021/05/28 09:31:34;;;;;;;12.53;3.70;;;26.50;55.40;;;;;;5105053;28;20269;-73
2021/05/28 09:34:03;;;;;;;4.73;1.70;;;26.50;55.00;;;;;;5083934;28;20292;-74
2021/05/28 09:36:35;;;;;;;2.83;1.43;;;26.70;55.40;;;;;;5094793;28;20644;-73
2021/05/28 09:39:14;;;;;;;2.43;1.10;;;26.60;54.00;;;;;;5103965;28;20212;-73
2021/05/28 09:41:50;;;;;;;4.87;1.50;;;26.60;55.30;;;;;;5099350;28;20686;-74
2021/05/28 09:44:23;;;;;;;4.97;1.37;;;26.60;54.30;;;;;;5108115;28;20570;-74
2021/05/28 09:47:11;;;;;;;10.63;1.70;;;26.40;54.00;;;;;;5102931;28;20204;-73
2021/05/28 09:49:40;;;;;;;4.30;1.63;;;26.40;55.00;;;;;;5105845;28;20224;-72
2021/05/28 09:52:18;;;;;;;2.80;1.20;;;26.60;55.30;;;;;;5087643;28;20691;-73
2021/05/28 09:55:01;;;;;;;3.20;1.70;;;26.90;52.90;;;;;;5103811;28;20644;-73
2021/05/28 09:57:49;;;;;;;3.20;1.27;;;27.00;52.60;;;;;;5105706;28;20295;-73
2021/05/28 10:00:34;;;;;;;5.03;2.13;;;27.00;52.70;;;;;;5108087;28;20274;-72
2021/05/28 10:03:18;;;;;;;2.93;1.97;;;27.00;52.90;;;;;;5102987;28;20212;-73
2021/05/28 10:05:51;;;;;;;2.20;1.23;;;27.10;51.50;;;;;;5106528;28;20528;-73
2021/05/28 10:08:20;;;;;;;5.33;1.23;;;27.00;52.00;;;;;;5101346;28;20220;-73
2021/05/28 10:10:50;;;;;;;3.43;1.40;;;26.90;52.60;;;;;;5101514;28;20213;-73
2021/05/28 10:13:19;;;;;;;6.07;1.70;;;27.00;53.90;;;;;;5090417;28;20208;-73
2021/05/28 10:15:52;;;;;;;5.00;1.90;;;27.20;52.70;;;;;;5105945;28;20223;-73
2021/05/28 10:18:20;;;;;;;3.53;1.43;;;26.90;51.80;;;;;;5086887;28;20209;-73
2021/05/28 10:20:55;;;;;;;4.60;1.43;;;26.70;53.60;;;;;;5106343;28;20734;-73
2021/05/28 10:23:23;;;;;;;2.67;1.70;;;26.70;51.70;;;;;;5108029;28;20212;-73
2021/05/28 10:25:55;;;;;;;3.73;1.57;;;26.80;51.70;;;;;;5105260;28;20649;-73
2021/05/28 10:28:32;;;;;;;3.17;1.50;;;27.00;52.60;;;;;;5101123;28;20544;-73
2021/05/28 10:31:00;;;;;;;3.10;1.57;;;27.40;51.90;;;;;;5089350;28;20329;-73
2021/05/28 10:33:28;;;;;;;4.67;2.07;;;27.60;51.20;;;;;;5106331;28;20247;-73
2021/05/28 10:36:05;;;;;;;6.13;1.77;;;27.80;52.10;;;;;;5105643;28;20205;-72
2021/05/28 10:39:08;;;;;;;1.93;1.27;;;28.00;49.30;;;;;;5104767;28;20217;-72
2021/05/28 10:41:38;;;;;;;3.43;1.30;;;28.10;48.90;;;;;;5087604;28;20227;-73
2021/05/28 10:44:08;;;;;;;4.43;1.37;;;28.20;48.60;;;;;;5067604;28;20289;-73
2021/05/28 10:46:36;;;;;;;2.77;1.50;;;28.20;48.40;;;;;;5107216;28;20559;-72
2021/05/28 10:49:10;;;;;;;4.83;1.30;;;28.20;49.30;;;;;;5104426;28;20265;-73
2021/05/28 10:51:37;;;;;;;2.23;1.33;;;28.20;48.40;;;;;;5108447;28;20251;-73
2021/05/28 10:54:04;;;;;;;2.97;1.50;;;28.20;46.30;;;;;;5107690;28;20281;-73
2021/05/28 10:56:38;;;;;;;5.10;1.97;;;28.10;45.00;;;;;;5103347;28;20251;-73
2021/05/28 10:59:16;;;;;;;3.77;1.53;;;28.00;46.70;;;;;;5107293;28;20244;-73
2021/05/28 11:01:49;;;;;;;3.13;1.30;;;28.00;47.60;;;;;;5101225;28;20440;-73
2021/05/28 11:04:37;;;;;;;2.23;1.20;;;27.90;49.40;;;;;;5106493;28;20547;-72
2021/05/28 11:07:04;;;;;;;2.83;1.30;;;28.00;49.50;;;;;;5086187;28;20733;-73
2021/05/28 11:09:42;;;;;;;2.43;1.27;;;28.20;48.10;;;;;;5108461;28;20226;-73
2021/05/28 11:12:14;;;;;;;3.13;1.53;;;28.30;47.20;;;;;;5103203;28;20205;-73
2021/05/28 11:15:03;;;;;;;2.90;1.23;;;28.30;46.20;;;;;;5105051;28;20213;-73
2021/05/28 11:17:31;;;;;;;1.80;1.10;;;28.30;46.00;;;;;;5100128;28;20214;-73
2021/05/28 11:20:06;;;;;;;2.90;1.03;;;28.20;44.80;;;;;;5102982;28;20240;-73
2021/05/28 11:22:38;;;;;;;5.57;1.10;;;28.10;44.90;;;;;;5104476;28;20221;-73
2021/05/28 11:25:20;;;;;;;5.23;1.00;;;28.10;45.40;;;;;;5103658;28;20529;-72
2021/05/28 11:27:54;;;;;;;3.80;1.07;;;28.20;43.70;;;;;;5085075;28;20312;-73
2021/05/28 11:30:26;;;;;;;2.73;1.30;;;28.40;43.70;;;;;;5105327;28;20287;-73
2021/05/28 11:32:54;;;;;;;4.43;0.97;;;28.40;42.60;;;;;;5102775;28;20244;-73
2021/05/28 11:35:42;;;;;;;1.87;0.70;;;28.30;44.00;;;;;;5088676;28;20240;-73
2021/05/28 11:38:12;;;;;;;1.97;0.93;;;28.30;42.90;;;;;;5086539;28;20637;-72
2021/05/28 11:40:43;;;;;;;1.53;0.80;;;28.30;43.30;;;;;;5102740;28;20244;-72
2021/05/28 11:43:14;;;;;;;2.80;1.00;;;28.30;44.20;;;;;;5103710;28;20212;-73
2021/05/28 11:45:46;;;;;;;2.60;1.30;;;28.30;43.00;;;;;;5100807;28;20216;-73
2021/05/28 11:48:25;;;;;;;2.67;0.93;;;28.30;41.70;;;;;;5100520;28;20205;-72
2021/05/28 11:50:57;;;;;;;3.10;0.93;;;28.20;42.60;;;;;;5102721;28;20259;-72
2021/05/28 11:53:38;;;;;;;3.53;1.20;;;28.20;42.30;;;;;;5107931;28;20687;-73
2021/05/28 11:56:06;;;;;;;3.33;1.20;;;28.20;42.00;;;;;;5101111;28;20255;-73
2021/05/28 11:58:35;;;;;;;5.23;1.10;;;28.20;42.60;;;;;;5088194;28;20243;-73
2021/05/28 12:01:04;;;;;;;3.90;1.33;;;28.10;43.10;;;;;;5102748;28;20240;-73
2021/05/28 12:03:33;;;;;;;2.00;1.03;;;27.80;43.60;;;;;;5098613;28;20679;-72
2021/05/28 12:06:09;;;;;;;2.27;1.23;;;27.60;44.20;;;;;;5104588;28;20270;-73
2021/05/28 12:08:40;;;;;;;3.67;1.10;;;27.50;42.80;;;;;;5105943;28;20604;-72
2021/05/28 12:11:09;;;;;;;2.50;0.83;;;27.40;45.00;;;;;;5106485;28;20227;-72
2021/05/28 12:13:38;;;;;;;2.43;1.07;;;27.40;44.90;;;;;;5081236;28;20312;-72
2021/05/28 12:16:11;;;;;;;3.07;1.20;;;27.50;44.70;;;;;;5103066;28;20205;-72
2021/05/28 12:18:47;;;;;;;2.13;1.00;;;27.50;43.10;;;;;;5088791;28;20224;-72
2021/05/28 12:21:27;;;;;;;4.90;1.20;;;27.50;44.30;;;;;;5103966;28;20263;-72
2021/05/28 12:23:56;;;;;;;2.00;1.00;;;27.50;44.00;;;;;;5098124;28;20655;-73
2021/05/28 12:26:27;;;;;;;1.83;0.90;;;27.50;44.60;;;;;;5105631;28;20251;-72
2021/05/28 12:28:56;;;;;;;3.37;1.07;;;27.50;43.60;;;;;;5084946;28;20209;-73
2021/05/28 12:31:34;;;;;;;1.97;0.83;;;27.50;43.40;;;;;;5084058;28;20582;-73
2021/05/28 12:34:10;;;;;;;1.47;0.90;;;27.40;41.50;;;;;;5103174;28;20247;-73
2021/05/28 12:36:40;;;;;;;2.07;1.10;;;27.40;42.20;;;;;;5094371;28;20239;-73
2021/05/28 12:39:12;;;;;;;3.50;0.90;;;27.50;42.90;;;;;;5105701;28;20231;-73
2021/05/28 12:41:42;;;;;;;2.33;1.17;;;27.50;43.90;;;;;;5087154;28;20691;-72
2021/05/28 12:44:09;;;;;;;1.40;0.80;;;27.60;41.70;;;;;;5085979;28;20220;-73
2021/05/28 12:46:38;;;;;;;5.67;1.43;;;27.60;41.60;;;;;;5102026;28;20694;-72
2021/05/28 12:49:13;;;;;;;2.90;0.80;;;27.50;41.00;;;;;;5103828;28;20231;-73
2021/05/28 12:51:48;;;;;;;1.67;0.90;;;27.50;42.60;;;;;;5105320;28;20215;-73
2021/05/28 12:54:24;;;;;;;3.10;1.07;;;27.50;42.90;;;;;;5080584;28;20217;-71
2021/05/28 12:56:58;;;;;;;3.60;1.07;;;27.30;43.30;;;;;;5086661;28;20273;-72
2021/05/28 12:59:31;;;;;;;1.10;0.73;;;27.30;43.10;;;;;;5101750;28;20232;-73